Time,TemperatureF,DewpointF,PressureIn,WindDirection,WindDirectionDegrees,WindSpeedMPH,WindSpeedGustMPH,Humidity,HourlyPrecipIn,Conditions,Clouds,dailyrainin,SoftwareType,DateUTC
2013-10-07 00:00:00,47.3,35.8,28.76,West,260,0.0,0.0,64,0.00,,---,1.14,VWS V14.01,2013-10-07 04:00:00,
2013-10-07 00:01:00,46.9,42.4,29.09,WNW,302,0.0,0.0,84,0.00,,---,0.00,VWS V14.01,2013-10-07 04:01:00,
2013-10-07 00:02:00,46.8,42.2,29.09,WNW,302,0.0,0.0,84,0.00,,---,0.00,VWS V14.01,2013-10-07 04:02:00,
2013-10-07 00:03:00,46.8,42.2,29.09,WNW,302,0.0,0.0,84,0.00,,---,0.00,VWS V14.01,2013-10-07 04:03:00,
2013-10-07 00:04:00,46.8,42.2,29.09,WNW,302,0.0,0.0,84,0.00,,---,0.00,VWS V14.01,2013-10-07 04:04:00,
2013-10-07 00:05:00,46.8,42.5,29.09,WNW,302,0.0,0.0,85,0.00,,---,0.00,VWS V14.01,2013-10-07 04:05:00,
2013-10-07 00:06:00,46.6,42.3,29.09,WNW,302,0.0,0.0,85,0.00,,---,0.00,VWS V14.01,2013-10-07 04:06:00,
2013-10-07 00:07:00,46.6,42.3,29.09,WNW,302,0.0,0.0,85,0.00,,---,0.00,VWS V14.01,2013-10-07 04:07:00,
2013-10-07 00:08:00,46.6,42.3,29.09,WNW,302,0.0,0.0,85,0.00,,---,0.00,VWS V14.01,2013-10-07 04:08:00,
2013-10-07 00:09:00,46.4,41.8,29.09,WNW,302,0.0,0.0,84,0.00,,---,0.00,VWS V14.01,2013-10-07 04:09:00,
2013-10-07 00:10:00,46.4,41.8,29.09,WNW,302,0.0,0.0,84,0.00,,---,0.00,VWS V14.01,2013-10-07 04:10:00,
2013-10-07 00:11:00,46.4,41.8,29.09,WNW,302,0.0,0.0,84,0.00,,---,0.00,VWS V14.01,2013-10-07 04:11:00,
2013-10-07 00:12:00,46.2,41.7,29.09,WNW,302,0.0,0.0,84,0.00,,---,0.00,VWS V14.01,2013-10-07 04:12:00,
2013-10-07 00:13:00,46.2,41.7,29.09,WNW,302,0.0,0.0,84,0.00,,---,0.00,VWS V14.01,2013-10-07 04:13:00,
2013-10-07 00:14:00,46.2,41.7,29.09,WNW,302,0.0,0.0,84,0.00,,---,0.00,VWS V14.01,2013-10-07 04:14:00,
2013-10-07 00:15:00,46.4,41.8,29.09,WNW,302,0.0,0.0,84,0.00,,---,0.00,VWS V14.01,2013-10-07 04:15:00,
2013-10-07 00:16:00,46.6,42.3,29.09,WNW,302,0.0,0.0,85,0.00,,---,0.00,VWS V14.01,2013-10-07 04:16:00,
2013-10-07 00:17:00,46.6,42.3,29.09,WNW,302,0.0,0.0,85,0.00,,---,0.00,VWS V14.01,2013-10-07 04:17:00,
2013-10-07 00:18:00,46.6,42.3,29.09,WNW,302,0.0,0.0,85,0.00,,---,0.00,VWS V14.01,2013-10-07 04:18:00,
2013-10-07 00:19:00,46.8,42.5,29.09,WNW,302,0.0,0.0,85,0.00,,---,0.00,VWS V14.01,2013-10-07 04:19:00,
2013-10-07 00:20:00,46.8,42.5,29.09,WNW,302,0.0,0.0,85,0.00,,---,0.00,VWS V14.01,2013-10-07 04:20:00,
2013-10-07 00:21:00,46.8,42.5,29.09,WNW,302,0.0,0.0,85,0.00,,---,0.00,VWS V14.01,2013-10-07 04:21:00,
2013-10-07 00:22:00,46.8,42.8,29.09,WNW,302,0.0,0.0,86,0.00,,---,0.00,VWS V14.01,2013-10-07 04:22:00,
2013-10-07 00:23:00,46.8,42.8,29.09,WNW,302,0.0,0.0,86,0.00,,---,0.00,VWS V14.01,2013-10-07 04:23:00,
2013-10-07 00:24:00,46.8,42.8,29.09,WNW,302,0.0,0.0,86,0.00,,---,0.00,VWS V14.01,2013-10-07 04:24:00,
2013-10-07 00:25:00,46.6,42.6,29.09,WNW,302,0.0,0.0,86,0.00,,---,0.00,VWS V14.01,2013-10-07 04:25:00,
2013-10-07 00:26:00,46.6,42.6,29.09,WNW,302,0.0,0.0,86,0.00,,---,0.00,VWS V14.01,2013-10-07 04:26:00,
2013-10-07 00:27:00,46.6,42.6,29.09,WNW,302,0.0,0.0,86,0.00,,---,0.00,VWS V14.01,2013-10-07 04:27:00,
2013-10-07 00:28:00,46.6,42.6,29.09,WNW,302,0.0,0.0,86,0.00,,---,0.00,VWS V14.01,2013-10-07 04:28:00,
2013-10-07 00:29:00,46.6,42.6,29.09,WNW,302,0.0,0.0,86,0.00,,---,0.00,VWS V14.01,2013-10-07 04:29:00,
2013-10-07 00:30:00,46.6,42.6,29.09,WNW,302,0.0,0.0,86,0.00,,---,0.00,VWS V14.01,2013-10-07 04:30:00,
2013-10-07 00:31:00,46.4,42.5,29.09,WNW,302,0.0,0.0,86,0.00,,---,0.00,VWS V14.01,2013-10-07 04:31:00,
2013-10-07 00:32:00,46.4,42.5,29.09,WNW,302,0.0,0.0,86,0.00,,---,0.00,VWS V14.01,2013-10-07 04:32:00,
2013-10-07 00:33:00,46.2,42.3,29.09,WNW,302,0.0,0.0,86,0.00,,---,0.00,VWS V14.01,2013-10-07 04:33:00,
2013-10-07 00:34:00,46.2,42.3,29.09,WNW,302,0.0,0.0,86,0.00,,---,0.00,VWS V14.01,2013-10-07 04:34:00,
2013-10-07 00:35:00,46.2,42.3,29.09,WNW,302,0.0,0.0,86,0.00,,---,0.00,VWS V14.01,2013-10-07 04:35:00,
2013-10-07 00:36:00,46.2,42.3,29.09,WNW,302,0.0,0.0,86,0.00,,---,0.00,VWS V14.01,2013-10-07 04:36:00,
2013-10-07 00:37:00,46.2,42.3,29.09,WNW,302,0.0,0.0,86,0.00,,---,0.00,VWS V14.01,2013-10-07 04:37:00,
2013-10-07 00:38:00,46.2,42.3,29.09,WNW,302,0.0,0.0,86,0.00,,---,0.00,VWS V14.01,2013-10-07 04:38:00,
2013-10-07 00:39:00,46.2,42.3,29.09,WNW,302,0.0,0.0,86,0.00,,---,0.00,VWS V14.01,2013-10-07 04:39:00,
2013-10-07 00:40:00,46.2,42.3,29.09,WNW,302,0.0,0.0,86,0.00,,---,0.00,VWS V14.01,2013-10-07 04:40:00,
2013-10-07 00:41:00,46.0,42.1,29.09,WNW,302,0.0,0.0,86,0.00,,---,0.00,VWS V14.01,2013-10-07 04:41:00,
2013-10-07 00:42:00,46.0,42.1,29.09,WNW,302,0.0,0.0,86,0.00,,---,0.00,VWS V14.01,2013-10-07 04:42:00,
2013-10-07 00:43:00,46.0,42.1,29.09,WNW,302,0.0,0.0,86,0.00,,---,0.00,VWS V14.01,2013-10-07 04:43:00,
2013-10-07 00:44:00,46.0,41.8,29.09,WNW,302,0.0,0.0,85,0.00,,---,0.00,VWS V14.01,2013-10-07 04:44:00,
2013-10-07 00:45:00,45.9,41.6,29.09,WNW,302,0.0,0.0,85,0.00,,---,0.00,VWS V14.01,2013-10-07 04:45:00,
2013-10-07 00:46:00,45.9,41.6,29.09,WNW,302,0.0,0.0,85,0.00,,---,0.00,VWS V14.01,2013-10-07 04:46:00,
2013-10-07 00:47:00,45.9,41.6,29.09,WNW,302,0.0,0.0,85,0.00,,---,0.00,VWS V14.01,2013-10-07 04:47:00,
2013-10-07 00:48:00,45.9,41.6,29.09,WNW,302,0.0,0.0,85,0.00,,---,0.00,VWS V14.01,2013-10-07 04:48:00,
2013-10-07 00:49:00,45.9,41.6,29.09,WNW,302,0.0,0.0,85,0.00,,---,0.00,VWS V14.01,2013-10-07 04:49:00,
2013-10-07 00:50:00,45.7,41.4,29.09,WNW,302,0.0,0.0,85,0.00,,---,0.00,VWS V14.01,2013-10-07 04:50:00,
2013-10-07 00:51:00,45.7,41.4,29.09,WNW,302,0.0,0.0,85,0.00,,---,0.00,VWS V14.01,2013-10-07 04:51:00,
2013-10-07 00:52:00,45.7,41.4,29.09,WNW,302,0.0,0.0,85,0.00,,---,0.00,VWS V14.01,2013-10-07 04:52:00,
2013-10-07 00:53:00,45.5,41.3,29.09,WNW,302,0.0,0.0,85,0.00,,---,0.00,VWS V14.01,2013-10-07 04:53:00,
2013-10-07 00:54:00,45.5,41.3,29.09,WNW,302,0.0,0.0,85,0.00,,---,0.00,VWS V14.01,2013-10-07 04:54:00,
2013-10-07 00:55:00,45.5,41.6,29.09,WNW,302,0.0,0.0,86,0.00,,---,0.00,VWS V14.01,2013-10-07 04:55:00,
2013-10-07 00:56:00,45.5,41.6,29.09,WNW,302,0.0,0.0,86,0.00,,---,0.00,VWS V14.01,2013-10-07 04:56:00,
2013-10-07 00:57:00,45.3,41.4,29.09,WNW,302,0.0,0.0,86,0.00,,---,0.00,VWS V14.01,2013-10-07 04:57:00,
2013-10-07 00:58:00,45.3,41.4,29.09,WNW,302,0.0,0.0,86,0.00,,---,0.00,VWS V14.01,2013-10-07 04:58:00,
2013-10-07 00:59:00,45.1,41.2,29.09,WNW,302,0.0,0.0,86,0.00,,---,0.00,VWS V14.01,2013-10-07 04:59:00,
2013-10-07 01:00:00,45.1,41.2,29.09,WNW,302,0.0,0.0,86,0.00,,---,0.00,VWS V14.01,2013-10-07 05:00:00,
2013-10-07 01:01:00,45.1,41.2,29.09,WNW,302,0.0,0.0,86,0.00,,---,0.00,VWS V14.01,2013-10-07 05:01:00,
2013-10-07 01:02:00,45.1,41.2,29.09,WNW,302,0.0,0.0,86,0.00,,---,0.00,VWS V14.01,2013-10-07 05:02:00,
2013-10-07 01:03:00,45.1,41.2,29.09,WNW,302,0.0,0.0,86,0.00,,---,0.00,VWS V14.01,2013-10-07 05:03:00,
2013-10-07 01:04:00,45.1,41.2,29.09,WNW,302,0.0,0.0,86,0.00,,---,0.00,VWS V14.01,2013-10-07 05:04:00,
2013-10-07 01:05:00,45.1,41.2,29.09,WNW,302,0.0,0.0,86,0.00,,---,0.00,VWS V14.01,2013-10-07 05:05:00,
2013-10-07 01:06:00,45.1,41.2,29.09,WNW,302,0.0,0.0,86,0.00,,---,0.00,VWS V14.01,2013-10-07 05:06:00,
2013-10-07 01:07:00,45.1,41.2,29.09,WNW,302,0.0,0.0,86,0.00,,---,0.00,VWS V14.01,2013-10-07 05:07:00,
2013-10-07 01:08:00,45.1,41.2,29.09,WNW,302,0.0,0.0,86,0.00,,---,0.00,VWS V14.01,2013-10-07 05:08:00,
2013-10-07 01:09:00,45.1,41.2,29.09,WNW,302,0.0,0.0,86,0.00,,---,0.00,VWS V14.01,2013-10-07 05:09:00,
2013-10-07 01:10:00,45.0,41.0,29.09,WNW,302,0.0,0.0,86,0.00,,---,0.00,VWS V14.01,2013-10-07 05:10:00,
2013-10-07 01:11:00,45.7,36.5,28.76,West,259,0.0,0.0,70,0.00,,---,0.00,VWS V14.01,2013-10-07 05:11:00,
2013-10-07 01:12:00,45.0,41.0,29.12,WNW,302,0.0,0.0,86,0.00,,---,0.00,VWS V14.01,2013-10-07 05:12:00,
2013-10-07 01:13:00,45.0,41.0,29.12,WNW,302,0.0,0.0,86,0.00,,---,0.00,VWS V14.01,2013-10-07 05:13:00,
2013-10-07 01:14:00,45.0,41.0,29.12,WNW,302,0.0,0.0,86,0.00,,---,0.00,VWS V14.01,2013-10-07 05:14:00,
2013-10-07 01:15:00,45.0,41.0,29.12,WNW,302,0.0,0.0,86,0.00,,---,0.00,VWS V14.01,2013-10-07 05:15:00,
2013-10-07 01:16:00,45.5,36.3,28.76,WSW,244,0.0,3.6,70,0.00,,---,0.00,VWS V14.01,2013-10-07 05:16:00,
2013-10-07 01:17:00,45.0,41.0,29.12,WNW,302,0.0,0.0,86,0.00,,---,0.00,VWS V14.01,2013-10-07 05:17:00,
2013-10-07 01:18:00,45.0,41.0,29.12,WNW,302,0.0,0.0,86,0.00,,---,0.00,VWS V14.01,2013-10-07 05:18:00,
2013-10-07 01:19:00,45.0,41.0,29.12,WNW,302,0.0,0.0,86,0.00,,---,0.00,VWS V14.01,2013-10-07 05:19:00,
2013-10-07 01:20:00,44.8,40.9,29.12,WNW,302,0.0,0.0,86,0.00,,---,0.00,VWS V14.01,2013-10-07 05:20:00,
2013-10-07 01:21:00,45.0,41.0,29.12,WNW,302,0.0,0.0,86,0.00,,---,0.00,VWS V14.01,2013-10-07 05:21:00,
2013-10-07 01:22:00,45.3,36.1,28.76,WSW,244,0.0,0.0,70,0.00,,---,0.00,VWS V14.01,2013-10-07 05:22:00,
2013-10-07 01:25:00,45.0,41.0,29.12,WNW,302,0.0,0.0,86,0.00,,---,0.00,VWS V14.01,2013-10-07 05:25:00,
2013-10-07 01:27:00,45.1,41.2,29.12,WNW,302,0.0,0.0,86,0.00,,---,0.00,VWS V14.01,2013-10-07 05:27:00,
2013-10-07 01:28:00,45.1,36.3,28.76,WSW,237,0.0,2.7,71,0.00,,---,0.00,VWS V14.01,2013-10-07 05:28:00,
2013-10-07 01:32:00,45.0,41.0,29.12,WNW,302,0.0,0.0,86,0.00,,---,0.00,VWS V14.01,2013-10-07 05:32:00,
2013-10-07 01:36:00,45.1,37.0,28.76,WSW,237,0.0,0.0,73,0.00,,---,0.00,VWS V14.01,2013-10-07 05:36:00,
2013-10-07 01:40:00,44.8,40.9,29.12,WNW,302,0.0,0.0,86,0.00,,---,0.00,VWS V14.01,2013-10-07 05:40:00,
2013-10-07 01:41:00,44.8,40.9,29.12,WNW,302,0.0,0.0,86,0.00,,---,0.00,VWS V14.01,2013-10-07 05:41:00,
2013-10-07 01:42:00,45.0,36.8,28.76,WSW,246,3.6,3.6,73,0.00,,---,0.00,VWS V14.01,2013-10-07 05:42:00,
2013-10-07 01:45:00,45.0,41.0,29.12,WNW,302,0.0,0.0,86,0.00,,---,0.00,VWS V14.01,2013-10-07 05:45:00,
2013-10-07 01:46:00,45.0,41.0,29.12,WNW,302,0.0,0.0,86,0.00,,---,0.00,VWS V14.01,2013-10-07 05:46:00,
2013-10-07 01:49:00,44.8,40.9,29.12,WNW,302,0.0,0.0,86,0.00,,---,0.00,VWS V14.01,2013-10-07 05:49:00,
2013-10-07 01:50:00,44.8,36.7,28.76,WSW,246,0.0,0.0,73,0.00,,---,0.00,VWS V14.01,2013-10-07 05:50:00,
2013-10-07 01:51:00,45.0,41.0,29.12,WNW,302,0.0,0.0,86,0.00,,---,0.00,VWS V14.01,2013-10-07 05:51:00,
2013-10-07 01:52:00,45.0,41.0,29.12,WNW,302,0.0,0.0,86,0.00,,---,0.00,VWS V14.01,2013-10-07 05:52:00,
2013-10-07 01:53:00,45.1,41.2,29.12,WNW,302,0.0,0.0,86,0.00,,---,0.00,VWS V14.01,2013-10-07 05:53:00,
2013-10-07 01:54:00,45.1,41.5,29.12,WNW,302,0.0,0.0,87,0.00,,---,0.00,VWS V14.01,2013-10-07 05:54:00,
2013-10-07 01:55:00,45.0,41.3,29.12,WNW,302,0.0,0.0,87,0.00,,---,0.00,VWS V14.01,2013-10-07 05:55:00,
2013-10-07 01:56:00,44.8,36.7,28.76,WSW,245,0.0,0.0,73,0.00,,---,0.00,VWS V14.01,2013-10-07 05:56:00,
2013-10-07 01:57:00,45.1,41.5,29.12,WNW,302,0.0,0.0,87,0.00,,---,0.00,VWS V14.01,2013-10-07 05:57:00,
2013-10-07 01:58:00,45.1,41.5,29.12,WNW,302,0.0,0.0,87,0.00,,---,0.00,VWS V14.01,2013-10-07 05:58:00,
2013-10-07 01:59:00,45.1,41.5,29.12,WNW,302,0.0,0.0,87,0.00,,---,0.00,VWS V14.01,2013-10-07 05:59:00,
2013-10-07 02:00:00,45.1,41.5,29.12,WNW,302,0.0,0.0,87,0.00,,---,0.00,VWS V14.01,2013-10-07 06:00:00,
2013-10-07 02:01:00,44.6,36.5,28.76,WSW,245,0.0,0.0,73,0.00,,---,0.00,VWS V14.01,2013-10-07 06:01:00,
2013-10-07 02:02:00,45.1,41.5,29.12,WNW,302,0.0,0.0,87,0.00,,---,0.00,VWS V14.01,2013-10-07 06:02:00,
2013-10-07 02:03:00,45.1,41.5,29.12,WNW,302,0.0,0.0,87,0.00,,---,0.00,VWS V14.01,2013-10-07 06:03:00,
2013-10-07 02:06:00,44.6,36.8,28.76,SW,233,0.0,0.0,74,0.00,,---,0.00,VWS V14.01,2013-10-07 06:06:00,
2013-10-07 02:08:00,45.0,41.3,29.12,WNW,302,0.0,0.0,87,0.00,,---,0.00,VWS V14.01,2013-10-07 06:08:00,
2013-10-07 02:11:00,44.4,36.7,28.76,West,262,0.0,4.0,74,0.00,,---,0.00,VWS V14.01,2013-10-07 06:11:00,
2013-10-07 02:13:00,44.8,41.2,29.12,WNW,302,0.0,0.0,87,0.00,,---,0.00,VWS V14.01,2013-10-07 06:13:00,
2013-10-07 02:16:00,44.4,37.0,28.76,WNW,286,0.0,0.0,75,0.00,,---,0.00,VWS V14.01,2013-10-07 06:16:00,
2013-10-07 02:17:00,44.6,41.0,29.12,WNW,302,0.0,0.0,87,0.00,,---,0.00,VWS V14.01,2013-10-07 06:17:00,
2013-10-07 02:19:00,44.6,41.0,29.12,WNW,302,0.0,0.0,87,0.00,,---,0.00,VWS V14.01,2013-10-07 06:19:00,
2013-10-07 02:22:00,44.4,37.0,28.76,WSW,249,0.0,0.0,75,0.00,,---,0.00,VWS V14.01,2013-10-07 06:22:00,
2013-10-07 02:24:00,44.8,41.2,29.12,WNW,302,0.0,0.0,87,0.00,,---,0.00,VWS V14.01,2013-10-07 06:24:00,
2013-10-07 02:25:00,44.8,41.2,29.12,WNW,302,0.0,0.0,87,0.00,,---,0.00,VWS V14.01,2013-10-07 06:25:00,
2013-10-07 02:27:00,44.2,37.2,28.76,WSW,237,0.0,0.0,76,0.00,,---,0.00,VWS V14.01,2013-10-07 06:27:00,
2013-10-07 02:32:00,44.6,37.5,28.76,West,267,0.0,3.1,76,0.00,,---,0.00,VWS V14.01,2013-10-07 06:32:00,
2013-10-07 02:36:00,45.1,41.5,29.12,WNW,302,0.0,0.0,87,0.00,,---,0.00,VWS V14.01,2013-10-07 06:36:00,
2013-10-07 02:37:00,44.4,37.3,28.76,SW,229,0.0,2.7,76,0.00,,---,0.00,VWS V14.01,2013-10-07 06:37:00,
2013-10-07 02:41:00,45.1,41.8,29.12,WNW,302,0.0,0.0,88,0.00,,---,0.00,VWS V14.01,2013-10-07 06:41:00,
2013-10-07 02:42:00,44.2,36.8,28.76,SW,219,0.0,0.0,75,0.00,,---,0.00,VWS V14.01,2013-10-07 06:42:00,
2013-10-07 02:47:00,44.4,37.3,28.76,West,275,0.0,5.8,76,0.00,,---,0.00,VWS V14.01,2013-10-07 06:47:00,
2013-10-07 02:48:00,45.1,41.8,29.12,WNW,302,0.0,0.0,88,0.00,,---,0.00,VWS V14.01,2013-10-07 06:48:00,
2013-10-07 02:52:00,44.4,37.3,28.76,WNW,282,2.7,2.7,76,0.00,,---,0.00,VWS V14.01,2013-10-07 06:52:00,
2013-10-07 02:53:00,45.0,41.6,29.12,WNW,302,0.0,0.0,88,0.00,,---,0.00,VWS V14.01,2013-10-07 06:53:00,
2013-10-07 02:54:00,45.0,41.6,29.12,WNW,302,0.0,0.0,88,0.00,,---,0.00,VWS V14.01,2013-10-07 06:54:00,
2013-10-07 02:57:00,44.4,37.3,28.76,WSW,239,0.0,0.0,76,0.00,,---,0.00,VWS V14.01,2013-10-07 06:57:00,
2013-10-07 02:58:00,44.8,41.5,29.12,WNW,302,0.0,0.0,88,0.00,,---,0.00,VWS V14.01,2013-10-07 06:58:00,
2013-10-07 02:59:00,44.8,41.5,29.12,WNW,302,0.0,0.0,88,0.00,,---,0.00,VWS V14.01,2013-10-07 06:59:00,
2013-10-07 03:02:00,44.2,37.2,28.76,WSW,238,0.0,0.0,76,0.00,,---,0.00,VWS V14.01,2013-10-07 07:02:00,
2013-10-07 03:07:00,44.1,37.0,28.76,SW,221,0.0,0.0,76,0.00,,---,0.00,VWS V14.01,2013-10-07 07:07:00,
2013-10-07 03:12:00,43.9,36.8,28.76,WSW,247,0.0,0.0,76,0.00,,---,0.00,VWS V14.01,2013-10-07 07:12:00,
2013-10-07 03:18:00,43.7,36.6,28.76,WSW,246,0.0,0.0,76,0.00,,---,0.00,VWS V14.01,2013-10-07 07:18:00,
2013-10-07 03:23:00,43.5,36.8,28.76,WSW,246,0.0,0.0,77,0.00,,---,0.00,VWS V14.01,2013-10-07 07:23:00,
2013-10-07 03:28:00,43.5,37.1,28.76,WSW,246,0.0,0.0,78,0.00,,---,0.00,VWS V14.01,2013-10-07 07:28:00,
2013-10-07 03:33:00,43.2,36.8,28.76,WSW,246,0.0,0.0,78,0.00,,---,0.00,VWS V14.01,2013-10-07 07:33:00,
2013-10-07 03:38:00,43.0,36.6,28.76,WSW,246,0.0,0.0,78,0.00,,---,0.00,VWS V14.01,2013-10-07 07:38:00,
2013-10-07 03:43:00,42.8,36.4,28.76,WSW,246,0.0,0.0,78,0.00,,---,0.00,VWS V14.01,2013-10-07 07:43:00,
2013-10-07 03:48:00,42.8,36.4,28.76,WSW,246,0.0,0.0,78,0.00,,---,0.00,VWS V14.01,2013-10-07 07:48:00,
2013-10-07 03:53:00,42.8,36.4,28.76,WSW,246,0.0,0.0,78,0.00,,---,0.00,VWS V14.01,2013-10-07 07:53:00,
2013-10-07 03:58:00,43.0,36.9,28.76,WSW,246,0.0,0.0,79,0.00,,---,0.00,VWS V14.01,2013-10-07 07:58:00,
2013-10-07 04:03:00,43.0,37.2,28.76,WSW,246,0.0,0.0,80,0.00,,---,0.00,VWS V14.01,2013-10-07 08:03:00,
2013-10-07 04:08:00,43.0,37.2,28.76,WSW,246,0.0,0.0,80,0.00,,---,0.00,VWS V14.01,2013-10-07 08:08:00,
2013-10-07 04:13:00,43.2,37.7,28.76,WSW,252,0.0,4.0,81,0.00,,---,0.00,VWS V14.01,2013-10-07 08:13:00,
2013-10-07 04:18:00,43.3,38.2,28.76,WSW,251,0.0,0.0,82,0.00,,---,0.00,VWS V14.01,2013-10-07 08:18:00,
2013-10-07 04:23:00,43.3,38.5,28.76,WSW,251,0.0,0.0,83,0.00,,---,0.00,VWS V14.01,2013-10-07 08:23:00,
2013-10-07 04:28:00,43.3,38.5,28.76,WSW,258,0.0,2.7,83,0.00,,---,0.00,VWS V14.01,2013-10-07 08:28:00,
2013-10-07 04:33:00,43.5,39.0,28.76,WSW,256,0.0,0.0,84,0.00,,---,0.00,VWS V14.01,2013-10-07 08:33:00,
2013-10-07 04:38:00,43.7,39.2,28.76,WSW,256,0.0,0.0,84,0.00,,---,0.00,VWS V14.01,2013-10-07 08:38:00,
2013-10-07 04:43:00,44.1,39.5,28.76,WSW,256,0.0,0.0,84,0.00,,---,0.00,VWS V14.01,2013-10-07 08:43:00,
2013-10-07 04:48:00,44.2,40.0,28.76,WSW,245,0.0,0.0,85,0.00,,---,0.00,VWS V14.01,2013-10-07 08:48:00,
2013-10-07 04:53:00,44.2,40.0,28.76,WSW,241,0.0,0.0,85,0.00,,---,0.00,VWS V14.01,2013-10-07 08:53:00,
2013-10-07 04:58:00,44.6,40.7,28.76,WSW,249,2.7,2.7,86,0.00,,---,0.00,VWS V14.01,2013-10-07 08:58:00,
2013-10-07 05:03:00,44.8,40.9,28.76,WSW,243,0.0,0.0,86,0.00,,---,0.00,VWS V14.01,2013-10-07 09:03:00,
2013-10-07 05:08:00,45.0,41.0,28.76,SW,231,0.0,0.0,86,0.00,,---,0.00,VWS V14.01,2013-10-07 09:08:00,
2013-10-07 05:13:00,45.1,41.2,28.76,SW,230,0.0,0.0,86,0.00,,---,0.00,VWS V14.01,2013-10-07 09:13:00,
2013-10-07 05:18:00,45.3,41.4,28.76,SW,230,0.0,0.0,86,0.00,,---,0.00,VWS V14.01,2013-10-07 09:18:00,
2013-10-07 05:23:00,45.5,41.6,28.76,SW,230,0.0,0.0,86,0.00,,---,0.00,VWS V14.01,2013-10-07 09:23:00,
2013-10-07 05:28:00,45.7,41.7,28.76,SW,230,0.0,0.0,86,0.00,,---,0.00,VWS V14.01,2013-10-07 09:28:00,
2013-10-07 05:33:00,45.9,41.9,28.76,West,269,0.0,0.0,86,0.00,,---,0.00,VWS V14.01,2013-10-07 09:33:00,
2013-10-07 05:38:00,46.0,42.1,28.76,West,275,0.0,2.7,86,0.00,,---,0.00,VWS V14.01,2013-10-07 09:38:00,
2013-10-07 05:43:00,46.2,42.3,28.76,West,271,0.0,4.5,86,0.00,,---,0.00,VWS V14.01,2013-10-07 09:43:00,
2013-10-07 05:48:00,46.2,42.3,28.76,WSW,249,0.0,0.0,86,0.00,,---,0.00,VWS V14.01,2013-10-07 09:48:00,
2013-10-07 05:53:00,46.4,42.5,28.76,West,263,0.0,3.1,86,0.00,,---,0.00,VWS V14.01,2013-10-07 09:53:00,
2013-10-07 05:58:00,46.6,42.6,28.76,WSW,253,0.0,0.0,86,0.00,,---,0.00,VWS V14.01,2013-10-07 09:58:00,
2013-10-07 06:03:00,46.8,42.8,28.76,SSW,201,0.0,2.7,86,0.00,,---,0.00,VWS V14.01,2013-10-07 10:03:00,
2013-10-07 06:08:00,46.8,42.8,28.76,SSW,201,0.0,0.0,86,0.00,,---,0.00,VWS V14.01,2013-10-07 10:08:00,
2013-10-07 06:13:00,46.8,43.1,28.76,WSW,253,3.6,5.4,87,0.00,,---,0.00,VWS V14.01,2013-10-07 10:13:00,
2013-10-07 06:18:00,46.8,43.1,28.76,WSW,241,0.0,0.0,87,0.00,,---,0.00,VWS V14.01,2013-10-07 10:18:00,
2013-10-07 06:23:00,46.8,43.1,28.76,West,260,0.0,4.0,87,0.00,,---,0.00,VWS V14.01,2013-10-07 10:23:00,
2013-10-07 06:28:00,46.8,43.4,28.76,SW,226,0.0,6.3,88,0.00,,---,0.00,VWS V14.01,2013-10-07 10:28:00,
2013-10-07 06:33:00,46.8,43.7,28.79,WNW,284,0.0,0.0,89,0.00,,---,0.00,VWS V14.01,2013-10-07 10:33:00,
2013-10-07 06:38:00,46.9,43.9,28.79,WNW,284,0.0,0.0,89,0.00,,---,0.00,VWS V14.01,2013-10-07 10:38:00,
2013-10-07 06:43:00,46.9,44.2,28.79,WNW,283,2.7,3.1,90,0.00,,---,0.00,VWS V14.01,2013-10-07 10:43:00,
2013-10-07 06:48:00,46.9,44.2,28.79,WSW,237,0.0,0.0,90,0.00,,---,0.00,VWS V14.01,2013-10-07 10:48:00,
2013-10-07 06:53:00,47.1,44.6,28.79,WSW,237,0.0,0.0,91,0.00,,---,0.00,VWS V14.01,2013-10-07 10:53:00,
2013-10-07 06:58:00,47.1,44.6,28.79,SW,228,4.0,4.0,91,0.00,,---,0.00,VWS V14.01,2013-10-07 10:58:00,
2013-10-07 07:03:00,47.3,45.1,28.79,SW,226,3.6,4.0,92,0.00,,---,0.00,VWS V14.01,2013-10-07 11:03:00,
2013-10-07 07:08:00,47.3,45.1,28.79,SSW,209,0.0,5.4,92,0.00,,---,0.00,VWS V14.01,2013-10-07 11:08:00,
2013-10-07 07:13:00,47.3,45.1,28.79,WSW,254,4.5,8.7,92,0.00,,---,0.00,VWS V14.01,2013-10-07 11:13:00,
2013-10-07 07:18:00,47.3,45.4,28.79,NW,307,4.9,7.4,93,0.00,,---,0.00,VWS V14.01,2013-10-07 11:18:00,
2013-10-07 07:23:00,47.1,45.5,28.79,West,275,6.3,6.7,94,0.00,,---,0.00,VWS V14.01,2013-10-07 11:23:00,
2013-10-07 07:28:00,46.9,45.3,28.79,NW,325,6.3,9.2,94,0.00,,---,0.00,VWS V14.01,2013-10-07 11:28:00,
2013-10-07 07:33:00,46.8,45.1,28.79,NW,322,3.6,5.4,94,0.00,,---,0.00,VWS V14.01,2013-10-07 11:33:00,
2013-10-07 07:38:00,46.2,44.9,28.79,NNW,327,4.5,4.5,95,0.00,,---,0.00,VWS V14.01,2013-10-07 11:38:00,
2013-10-07 07:43:00,46.2,44.9,28.79,West,268,7.4,8.7,95,0.00,,---,0.00,VWS V14.01,2013-10-07 11:43:00,
2013-10-07 07:48:00,46.0,44.7,28.79,WNW,296,5.4,5.4,95,0.00,,---,0.00,VWS V14.01,2013-10-07 11:48:00,
2013-10-07 07:53:00,45.9,44.5,28.79,NW,321,3.6,8.7,95,0.00,,---,0.00,VWS V14.01,2013-10-07 11:53:00,
2013-10-07 07:58:00,45.7,44.3,28.79,WNW,282,6.3,7.8,95,0.00,,---,0.00,VWS V14.01,2013-10-07 11:58:00,
2013-10-07 08:03:00,45.5,44.2,28.79,WNW,285,4.0,6.9,95,0.00,,---,0.00,VWS V14.01,2013-10-07 12:03:00,
2013-10-07 08:08:00,45.5,44.2,28.79,WNW,286,4.9,4.9,95,0.00,,---,0.00,VWS V14.01,2013-10-07 12:08:00,
2013-10-07 08:13:00,45.5,44.2,28.79,West,277,0.0,3.1,95,0.00,,---,0.00,VWS V14.01,2013-10-07 12:13:00,
2013-10-07 08:18:00,45.5,44.2,28.82,WNW,290,4.5,4.5,95,0.00,,---,0.00,VWS V14.01,2013-10-07 12:18:00,
2013-10-07 08:23:00,45.5,44.2,28.82,WNW,287,6.7,6.9,95,0.00,,---,0.00,VWS V14.01,2013-10-07 12:23:00,
2013-10-07 08:28:00,45.5,44.2,28.82,WNW,289,8.3,8.7,95,0.00,,---,0.00,VWS V14.01,2013-10-07 12:28:00,
2013-10-07 08:33:00,45.5,44.4,28.82,WSW,253,3.6,7.8,96,0.00,,---,0.00,VWS V14.01,2013-10-07 12:33:00,
2013-10-07 08:38:00,45.5,44.2,28.82,West,267,7.8,9.2,95,0.00,,---,0.00,VWS V14.01,2013-10-07 12:38:00,
2013-10-07 08:43:00,45.7,44.3,28.82,WSW,244,5.8,7.8,95,0.00,,---,0.00,VWS V14.01,2013-10-07 12:43:00,
2013-10-07 08:48:00,45.9,44.5,28.82,WNW,286,5.8,6.7,95,0.00,,---,0.00,VWS V14.01,2013-10-07 12:48:00,
2013-10-07 08:53:00,46.0,44.7,28.82,NNW,339,0.0,4.5,95,0.00,,---,0.00,VWS V14.01,2013-10-07 12:53:00,
2013-10-07 08:58:00,46.2,44.9,28.82,WNW,294,3.6,6.7,95,0.00,,---,0.00,VWS V14.01,2013-10-07 12:58:00,
2013-10-07 09:03:00,46.2,44.9,28.85,WNW,282,6.9,9.2,95,0.00,,---,0.00,VWS V14.01,2013-10-07 13:03:00,
2013-10-07 09:08:00,46.6,45.0,28.85,West,266,6.3,9.6,94,0.00,,---,0.00,VWS V14.01,2013-10-07 13:08:00,
2013-10-07 09:13:00,46.9,45.0,28.85,WNW,295,3.6,5.8,93,0.00,,---,0.00,VWS V14.01,2013-10-07 13:13:00,
2013-10-07 09:18:00,47.3,45.1,28.85,West,279,5.4,5.8,92,0.00,,---,0.00,VWS V14.01,2013-10-07 13:18:00,
2013-10-07 09:24:00,47.5,44.1,28.85,West,268,3.6,6.7,88,0.00,,---,0.00,VWS V14.01,2013-10-07 13:24:00,
2013-10-07 09:29:00,47.7,43.4,28.85,WNW,282,6.7,9.6,85,0.00,,---,0.00,VWS V14.01,2013-10-07 13:29:00,
2013-10-07 09:34:00,47.7,42.4,28.85,West,279,6.3,11.0,82,0.00,,---,0.00,VWS V14.01,2013-10-07 13:34:00,
2013-10-07 09:39:00,47.5,41.3,28.85,West,270,3.6,8.3,79,0.00,,---,0.00,VWS V14.01,2013-10-07 13:39:00,
2013-10-07 09:44:00,47.8,40.7,28.85,NNW,337,4.0,8.7,76,0.00,,---,0.00,VWS V14.01,2013-10-07 13:44:00,
2013-10-07 09:49:00,47.8,40.0,28.85,West,277,5.8,7.4,74,0.00,,---,0.00,VWS V14.01,2013-10-07 13:49:00,
2013-10-07 09:54:00,48.2,40.0,28.85,WNW,284,4.0,10.5,73,0.00,,---,0.00,VWS V14.01,2013-10-07 13:54:00,
2013-10-07 09:59:00,48.4,40.1,28.85,WNW,295,4.5,7.4,73,0.00,,---,0.00,VWS V14.01,2013-10-07 13:59:00,
2013-10-07 10:04:00,48.4,39.4,28.85,West,281,3.6,6.9,71,0.00,,---,0.00,VWS V14.01,2013-10-07 14:04:00,
2013-10-07 10:09:00,48.6,40.0,28.85,West,265,5.4,9.6,72,0.00,,---,0.00,VWS V14.01,2013-10-07 14:09:00,
2013-10-07 10:14:00,48.6,39.6,28.85,WNW,284,6.7,8.7,71,0.00,,---,0.00,VWS V14.01,2013-10-07 14:14:00,
2013-10-07 10:19:00,49.1,38.6,28.88,WSW,249,5.4,8.7,67,0.00,,---,0.00,VWS V14.01,2013-10-07 14:19:00,
2013-10-07 10:24:00,49.8,38.9,28.88,WSW,243,8.3,11.2,66,0.00,,---,0.00,VWS V14.01,2013-10-07 14:24:00,
2013-10-07 10:29:00,50.2,38.9,28.88,West,267,4.9,5.4,65,0.00,,---,0.00,VWS V14.01,2013-10-07 14:29:00,
2013-10-07 10:34:00,50.2,38.1,28.88,NW,321,2.7,5.4,63,0.00,,---,0.00,VWS V14.01,2013-10-07 14:34:00,
2013-10-07 10:39:00,50.0,37.5,28.88,West,261,9.6,9.6,62,0.00,,---,0.00,VWS V14.01,2013-10-07 14:39:00,
2013-10-07 10:44:00,50.0,37.5,28.88,SW,224,8.7,8.7,62,0.00,,---,0.00,VWS V14.01,2013-10-07 14:44:00,
2013-10-07 10:49:00,50.2,37.7,28.88,NW,312,0.0,7.4,62,0.00,,---,0.00,VWS V14.01,2013-10-07 14:49:00,
2013-10-07 10:54:00,51.3,36.1,28.88,WSW,251,8.3,8.3,56,0.00,,---,0.00,VWS V14.01,2013-10-07 14:54:00,
2013-10-07 10:59:00,51.1,34.6,28.88,West,272,6.3,9.6,53,0.00,,---,0.00,VWS V14.01,2013-10-07 14:59:00,
2013-10-07 11:04:00,51.8,35.2,28.88,NW,305,6.7,11.6,53,0.00,,---,0.00,VWS V14.01,2013-10-07 15:04:00,
2013-10-07 11:09:00,52.0,34.9,28.88,NNW,334,7.8,12.1,52,0.00,,---,0.00,VWS V14.01,2013-10-07 15:09:00,
2013-10-07 11:14:00,52.2,34.6,28.88,NW,321,0.0,8.3,51,0.00,,---,0.00,VWS V14.01,2013-10-07 15:14:00,
2013-10-07 11:19:00,53.1,34.4,28.91,NW,318,4.9,6.7,49,0.00,,---,0.00,VWS V14.01,2013-10-07 15:19:00,
2013-10-07 11:24:00,52.2,34.1,28.91,NNW,327,0.0,4.9,50,0.00,,---,0.00,VWS V14.01,2013-10-07 15:24:00,
2013-10-07 11:29:00,52.3,35.7,28.91,WNW,298,0.0,4.0,53,0.00,,---,0.00,VWS V14.01,2013-10-07 15:29:00,
2013-10-07 11:34:00,53.2,36.1,28.91,West,280,5.8,6.7,52,0.00,,---,0.00,VWS V14.01,2013-10-07 15:34:00,
2013-10-07 11:39:00,52.9,33.7,28.91,WNW,293,5.8,10.5,48,0.00,,---,0.00,VWS V14.01,2013-10-07 15:39:00,
2013-10-07 11:44:00,53.6,33.3,28.91,WSW,239,3.6,12.5,46,0.00,,---,0.00,VWS V14.01,2013-10-07 15:44:00,
2013-10-07 11:49:00,54.1,32.7,28.91,West,269,0.0,7.4,44,0.00,,---,0.00,VWS V14.01,2013-10-07 15:49:00,
2013-10-07 11:54:00,53.1,32.3,28.91,WNW,301,8.3,12.1,45,0.00,,---,0.00,VWS V14.01,2013-10-07 15:54:00,
2013-10-07 11:59:00,53.2,33.0,28.91,SW,233,6.7,10.1,46,0.00,,---,0.00,VWS V14.01,2013-10-07 15:59:00,
2013-10-07 12:04:00,53.4,32.6,28.91,West,277,7.4,7.4,45,0.00,,---,0.00,VWS V14.01,2013-10-07 16:04:00,
2013-10-07 12:09:00,53.4,32.6,28.91,West,264,6.3,9.2,45,0.00,,---,0.00,VWS V14.01,2013-10-07 16:09:00,
2013-10-07 12:14:00,54.3,32.9,28.91,WNW,286,8.7,12.1,44,0.00,,---,0.00,VWS V14.01,2013-10-07 16:14:00,
2013-10-07 12:19:00,53.8,32.4,28.91,NNW,342,5.8,7.8,44,0.00,,---,0.00,VWS V14.01,2013-10-07 16:19:00,
2013-10-07 12:24:00,55.0,33.5,28.91,West,270,4.0,7.8,44,0.00,,---,0.00,VWS V14.01,2013-10-07 16:24:00,
2013-10-07 12:29:00,56.5,31.8,28.91,SW,227,8.7,8.7,39,0.00,,---,0.00,VWS V14.01,2013-10-07 16:29:00,
2013-10-07 12:34:00,57.0,31.7,28.91,WSW,240,6.3,8.7,38,0.00,,---,0.00,VWS V14.01,2013-10-07 16:34:00,
2013-10-07 12:39:00,57.6,30.8,28.91,WNW,292,11.0,13.4,36,0.00,,---,0.00,VWS V14.01,2013-10-07 16:39:00,
2013-10-07 12:44:00,57.2,31.8,28.91,SSW,196,6.9,6.9,38,0.00,,---,0.00,VWS V14.01,2013-10-07 16:44:00,
2013-10-07 12:49:00,58.3,32.2,28.91,West,275,8.3,8.7,37,0.00,,---,0.00,VWS V14.01,2013-10-07 16:49:00,
2013-10-07 12:54:00,57.9,31.1,28.91,North,351,5.4,9.6,36,0.00,,---,0.00,VWS V14.01,2013-10-07 16:54:00,
2013-10-07 12:59:00,58.1,30.6,28.91,WSW,244,11.6,11.6,35,0.00,,---,0.00,VWS V14.01,2013-10-07 16:59:00,
2013-10-07 13:04:00,57.7,31.0,28.91,WSW,242,4.0,12.5,36,0.00,,---,0.00,VWS V14.01,2013-10-07 17:04:00,
2013-10-07 13:10:00,57.9,30.5,28.91,WSW,243,6.7,14.8,35,0.00,,---,0.00,VWS V14.01,2013-10-07 17:10:00,
2013-10-07 13:15:00,58.8,31.2,28.91,NW,308,6.3,9.2,35,0.00,,---,0.00,VWS V14.01,2013-10-07 17:15:00,
2013-10-07 13:20:00,57.7,30.3,28.91,West,259,9.6,9.6,35,0.00,,---,0.00,VWS V14.01,2013-10-07 17:20:00,
2013-10-07 13:25:00,57.6,30.1,28.91,WNW,291,8.7,12.1,35,0.00,,---,0.00,VWS V14.01,2013-10-07 17:25:00,
2013-10-07 13:30:00,59.0,30.7,28.91,West,270,9.6,17.2,34,0.00,,---,0.00,VWS V14.01,2013-10-07 17:30:00,
2013-10-07 13:35:00,59.4,31.0,28.91,NNW,344,0.0,9.6,34,0.00,,---,0.00,VWS V14.01,2013-10-07 17:35:00,
2013-10-07 13:40:00,57.9,30.5,28.91,WSW,240,6.9,13.9,35,0.00,,---,0.00,VWS V14.01,2013-10-07 17:40:00,
2013-10-07 13:45:00,57.6,30.1,28.91,West,266,8.7,14.8,35,0.00,,---,0.00,VWS V14.01,2013-10-07 17:45:00,
2013-10-07 13:50:00,57.7,30.3,28.91,West,267,8.7,13.4,35,0.00,,---,0.00,VWS V14.01,2013-10-07 17:50:00,
2013-10-07 13:55:00,59.0,30.7,28.91,West,277,6.9,11.6,34,0.00,,---,0.00,VWS V14.01,2013-10-07 17:55:00,
2013-10-07 14:00:00,58.3,30.1,28.91,WNW,287,7.4,10.5,34,0.00,,---,0.00,VWS V14.01,2013-10-07 18:00:00,
2013-10-07 14:05:00,59.5,31.2,28.91,WSW,249,7.8,13.0,34,0.00,,---,0.00,VWS V14.01,2013-10-07 18:05:00,
2013-10-07 14:10:00,59.2,30.9,28.91,WNW,288,8.7,10.5,34,0.00,,---,0.00,VWS V14.01,2013-10-07 18:10:00,
2013-10-07 14:15:00,59.4,31.0,28.91,WSW,248,8.3,9.6,34,0.00,,---,0.00,VWS V14.01,2013-10-07 18:15:00,
2013-10-07 14:20:00,58.8,30.5,28.91,WNW,294,11.0,11.0,34,0.00,,---,0.00,VWS V14.01,2013-10-07 18:20:00,
2013-10-07 14:25:00,58.8,31.2,28.91,WNW,287,6.7,13.0,35,0.00,,---,0.00,VWS V14.01,2013-10-07 18:25:00,
2013-10-07 14:30:00,60.8,32.3,28.91,NNW,329,5.4,9.6,34,0.00,,---,0.00,VWS V14.01,2013-10-07 18:30:00,
2013-10-07 14:35:00,60.6,32.1,28.91,West,269,4.5,8.3,34,0.00,,---,0.00,VWS V14.01,2013-10-07 18:35:00,
2013-10-07 14:40:00,59.4,31.7,28.91,WSW,242,5.8,10.1,35,0.00,,---,0.00,VWS V14.01,2013-10-07 18:40:00,
2013-10-07 14:45:00,58.8,31.2,28.91,West,269,4.9,17.2,35,0.00,,---,0.00,VWS V14.01,2013-10-07 18:45:00,
2013-10-07 14:50:00,58.6,31.8,28.91,West,277,7.8,10.5,36,0.00,,---,0.00,VWS V14.01,2013-10-07 18:50:00,
2013-10-07 14:55:00,58.1,32.0,28.91,WNW,297,6.9,8.7,37,0.00,,---,0.00,VWS V14.01,2013-10-07 18:55:00,
2013-10-07 15:00:00,57.7,33.6,28.91,WNW,285,11.6,11.6,40,0.00,,---,0.00,VWS V14.01,2013-10-07 19:00:00,
2013-10-07 15:05:00,57.6,34.1,28.94,WSW,256,14.3,14.3,41,0.00,,---,0.00,VWS V14.01,2013-10-07 19:05:00,
2013-10-07 15:07:00,76.6,25.6,29.15,East,91,0.0,0.0,15,0.00,,---,0.00,VWS V14.01,2013-10-07 19:07:00,
2013-10-07 15:10:00,77.9,26.6,29.15,NNE,17,3.1,3.6,15,0.00,,---,0.00,VWS V14.01,2013-10-07 19:10:00,
2013-10-07 15:11:00,57.9,35.0,28.94,ESE,110,3.6,12.1,42,0.00,,---,0.00,VWS V14.01,2013-10-07 19:11:00,
2013-10-07 15:15:00,77.4,26.1,29.15,East,83,0.0,0.0,15,0.00,,---,0.00,VWS V14.01,2013-10-07 19:15:00,
2013-10-07 15:16:00,77.5,26.3,29.15,ESE,107,4.5,4.5,15,0.00,,---,0.00,VWS V14.01,2013-10-07 19:16:00,
2013-10-07 15:17:00,57.6,35.2,28.94,North,5,6.9,10.1,43,0.00,,---,0.00,VWS V14.01,2013-10-07 19:17:00,
2013-10-07 15:18:00,77.5,26.3,29.15,East,94,0.0,3.1,15,0.00,,---,0.00,VWS V14.01,2013-10-07 19:18:00,
2013-10-07 15:20:00,77.7,26.4,29.15,ESE,102,4.5,6.3,15,0.00,,---,0.00,VWS V14.01,2013-10-07 19:20:00,
2013-10-07 15:21:00,77.9,26.6,29.15,ESE,113,2.7,6.9,15,0.00,,---,0.00,VWS V14.01,2013-10-07 19:21:00,
2013-10-07 15:22:00,57.4,36.2,28.94,West,275,11.2,11.2,45,0.00,,---,0.00,VWS V14.01,2013-10-07 19:22:00,
2013-10-07 15:23:00,77.5,26.3,29.15,ESE,120,7.4,7.4,15,0.00,,---,0.00,VWS V14.01,2013-10-07 19:23:00,
2013-10-07 15:25:00,76.5,25.4,29.15,SE,140,3.1,9.2,15,0.00,,---,0.00,VWS V14.01,2013-10-07 19:25:00,
2013-10-07 15:27:00,57.2,36.1,28.94,WNW,303,3.6,11.0,45,0.00,,---,0.00,VWS V14.01,2013-10-07 19:27:00,
2013-10-07 15:28:00,76.5,25.4,29.15,SE,144,3.6,4.0,15,0.00,,---,0.00,VWS V14.01,2013-10-07 19:28:00,
2013-10-07 15:29:00,76.5,25.4,29.15,ESE,120,4.5,5.8,15,0.00,,---,0.00,VWS V14.01,2013-10-07 19:29:00,
2013-10-07 15:31:00,75.7,24.9,29.15,ESE,120,6.7,6.7,15,0.00,,---,0.00,VWS V14.01,2013-10-07 19:31:00,
2013-10-07 15:32:00,56.8,36.3,28.94,WNW,292,5.4,9.2,46,0.00,,---,0.00,VWS V14.01,2013-10-07 19:32:00,
2013-10-07 15:33:00,75.9,25.0,29.15,ENE,67,3.6,5.4,15,0.00,,---,0.00,VWS V14.01,2013-10-07 19:33:00,
2013-10-07 15:34:00,75.9,25.0,29.15,ENE,72,3.6,5.8,15,0.00,,---,0.00,VWS V14.01,2013-10-07 19:34:00,
2013-10-07 15:35:00,75.9,25.0,29.15,SE,145,4.0,4.9,15,0.00,,---,0.00,VWS V14.01,2013-10-07 19:35:00,
2013-10-07 15:36:00,75.9,25.0,29.15,East,92,6.7,6.7,15,0.00,,---,0.00,VWS V14.01,2013-10-07 19:36:00,
2013-10-07 15:37:00,56.8,36.3,28.94,WNW,293,8.3,9.2,46,0.00,,---,0.00,VWS V14.01,2013-10-07 19:37:00,
2013-10-07 15:38:00,75.4,24.6,29.15,ESE,110,5.4,7.8,15,0.00,,---,0.00,VWS V14.01,2013-10-07 19:38:00,
2013-10-07 15:39:00,75.2,24.4,29.15,SE,137,5.4,5.8,15,0.00,,---,0.00,VWS V14.01,2013-10-07 19:39:00,
2013-10-07 15:40:00,74.8,24.1,29.15,SE,136,4.0,7.4,15,0.00,,---,0.00,VWS V14.01,2013-10-07 19:40:00,
2013-10-07 15:41:00,74.8,24.1,29.15,SE,131,0.0,5.4,15,0.00,,---,0.00,VWS V14.01,2013-10-07 19:41:00,
2013-10-07 15:42:00,56.5,36.0,28.94,NW,312,3.6,8.7,46,0.00,,---,0.00,VWS V14.01,2013-10-07 19:42:00,
2013-10-07 15:43:00,74.8,24.1,29.15,SE,129,4.5,6.3,15,0.00,,---,0.00,VWS V14.01,2013-10-07 19:43:00,
2013-10-07 15:44:00,74.8,24.1,29.15,SSE,148,3.1,4.5,15,0.00,,---,0.00,VWS V14.01,2013-10-07 19:44:00,
2013-10-07 15:45:00,74.8,24.1,29.15,SSE,159,3.6,6.3,15,0.00,,---,0.00,VWS V14.01,2013-10-07 19:45:00,
2013-10-07 15:46:00,74.8,24.1,29.15,SSE,158,0.0,4.0,15,0.00,,---,0.00,VWS V14.01,2013-10-07 19:46:00,
2013-10-07 15:47:00,74.8,24.1,29.15,ESE,122,4.5,4.9,15,0.00,,---,0.00,VWS V14.01,2013-10-07 19:47:00,
2013-10-07 15:48:00,56.3,35.8,28.94,WSW,251,11.2,13.0,46,0.00,,---,0.00,VWS V14.01,2013-10-07 19:48:00,
2013-10-07 15:49:00,74.8,24.1,29.15,ESE,114,0.0,6.7,15,0.00,,---,0.00,VWS V14.01,2013-10-07 19:49:00,
2013-10-07 15:50:00,75.0,24.3,29.15,ESE,114,2.7,2.7,15,0.00,,---,0.00,VWS V14.01,2013-10-07 19:50:00,
2013-10-07 15:51:00,75.2,24.4,29.15,ESE,103,6.3,6.3,15,0.00,,---,0.00,VWS V14.01,2013-10-07 19:51:00,
2013-10-07 15:52:00,75.0,24.3,29.15,ESE,107,5.4,8.7,15,0.00,,---,0.00,VWS V14.01,2013-10-07 19:52:00,
2013-10-07 15:53:00,56.7,36.7,28.94,WSW,255,5.8,9.6,47,0.00,,---,0.00,VWS V14.01,2013-10-07 19:53:00,
2013-10-07 15:54:00,74.7,24.0,29.15,ESE,105,4.0,7.8,15,0.00,,---,0.00,VWS V14.01,2013-10-07 19:54:00,
2013-10-07 15:55:00,74.8,24.1,29.15,East,98,5.4,5.4,15,0.00,,---,0.00,VWS V14.01,2013-10-07 19:55:00,
2013-10-07 15:56:00,75.0,24.3,29.15,ESE,122,3.6,5.4,15,0.00,,---,0.00,VWS V14.01,2013-10-07 19:56:00,
2013-10-07 15:57:00,75.2,24.4,29.15,SSW,212,0.0,5.4,15,0.00,,---,0.00,VWS V14.01,2013-10-07 19:57:00,
2013-10-07 15:58:00,57.2,36.6,28.94,WNW,292,6.3,10.5,46,0.00,,---,0.00,VWS V14.01,2013-10-07 19:58:00,
2013-10-07 15:59:00,75.9,25.0,29.15,SSW,213,0.0,0.0,15,0.00,,---,0.00,VWS V14.01,2013-10-07 19:59:00,
2013-10-07 16:00:00,76.3,25.3,29.15,SSE,154,2.7,3.6,15,0.00,,---,0.00,VWS V14.01,2013-10-07 20:00:00,
2013-10-07 16:03:00,59.2,37.3,28.94,WNW,286,7.4,8.3,44,0.00,,---,0.00,VWS V14.01,2013-10-07 20:03:00,
2013-10-07 16:04:00,76.3,25.3,29.15,SE,135,4.9,5.8,15,0.00,,---,0.00,VWS V14.01,2013-10-07 20:04:00,
2013-10-07 16:05:00,75.9,25.0,29.15,SSE,156,4.9,6.9,15,0.00,,---,0.00,VWS V14.01,2013-10-07 20:05:00,
2013-10-07 16:06:00,75.6,24.7,29.15,SE,132,4.5,5.4,15,0.00,,---,0.00,VWS V14.01,2013-10-07 20:06:00,
2013-10-07 16:07:00,75.2,24.4,29.15,East,86,6.7,6.7,15,0.00,,---,0.00,VWS V14.01,2013-10-07 20:07:00,
2013-10-07 16:08:00,60.1,35.7,28.94,North,1,4.5,6.7,40,0.00,,---,0.00,VWS V14.01,2013-10-07 20:08:00,
2013-10-07 16:09:00,75.0,24.3,29.15,NE,42,0.0,5.8,15,0.00,,---,0.00,VWS V14.01,2013-10-07 20:09:00,
2013-10-07 16:10:00,74.8,24.1,29.15,SE,124,4.0,5.4,15,0.00,,---,0.00,VWS V14.01,2013-10-07 20:10:00,
2013-10-07 16:11:00,74.7,24.0,29.15,ESE,102,5.4,6.9,15,0.00,,---,0.00,VWS V14.01,2013-10-07 20:11:00,
2013-10-07 16:12:00,74.5,23.8,29.15,ESE,120,7.8,7.8,15,0.00,,---,0.00,VWS V14.01,2013-10-07 20:12:00,
2013-10-07 16:13:00,59.0,34.1,28.94,West,279,5.4,8.7,39,0.00,,---,0.00,VWS V14.01,2013-10-07 20:13:00,
2013-10-07 16:14:00,74.5,23.8,29.15,ESE,103,4.5,6.3,15,0.00,,---,0.00,VWS V14.01,2013-10-07 20:14:00,
2013-10-07 16:15:00,74.5,23.8,29.15,SSE,152,4.5,6.9,15,0.00,,---,0.00,VWS V14.01,2013-10-07 20:15:00,
2013-10-07 16:16:00,74.1,25.1,29.15,SE,129,6.9,8.3,16,0.00,,---,0.00,VWS V14.01,2013-10-07 20:16:00,
2013-10-07 16:17:00,73.9,25.0,29.15,SSE,152,4.5,6.9,16,0.00,,---,0.00,VWS V14.01,2013-10-07 20:17:00,
2013-10-07 16:18:00,57.9,34.4,28.94,NW,310,3.6,8.7,41,0.00,,---,0.00,VWS V14.01,2013-10-07 20:18:00,
2013-10-07 16:19:00,74.1,25.1,29.15,East,93,4.5,5.8,16,0.00,,---,0.00,VWS V14.01,2013-10-07 20:19:00,
2013-10-07 16:20:00,74.3,25.2,29.15,ESE,112,6.7,6.7,16,0.00,,---,0.00,VWS V14.01,2013-10-07 20:20:00,
2013-10-07 16:21:00,74.3,25.2,29.15,SSE,151,3.1,6.9,16,0.00,,---,0.00,VWS V14.01,2013-10-07 20:21:00,
2013-10-07 16:22:00,74.1,25.1,29.15,East,99,4.9,7.4,16,0.00,,---,0.00,VWS V14.01,2013-10-07 20:22:00,
2013-10-07 16:23:00,58.3,35.3,28.94,NW,311,7.8,8.3,42,0.00,,---,0.00,VWS V14.01,2013-10-07 20:23:00,
2013-10-07 16:24:00,74.1,25.1,29.15,SW,216,3.6,5.4,16,0.00,,---,0.00,VWS V14.01,2013-10-07 20:24:00,
2013-10-07 16:25:00,74.3,25.2,29.15,ESE,120,7.4,7.4,16,0.00,,---,0.00,VWS V14.01,2013-10-07 20:25:00,
2013-10-07 16:26:00,73.9,25.0,29.15,East,87,8.7,8.7,16,0.00,,---,0.00,VWS V14.01,2013-10-07 20:26:00,
2013-10-07 16:27:00,73.8,24.8,29.15,East,88,4.9,8.7,16,0.00,,---,0.00,VWS V14.01,2013-10-07 20:27:00,
2013-10-07 16:28:00,73.8,24.8,29.15,East,91,6.9,7.8,16,0.00,,---,0.00,VWS V14.01,2013-10-07 20:28:00,
2013-10-07 16:29:00,59.7,33.4,28.94,WNW,293,3.1,7.8,37,0.00,,---,0.00,VWS V14.01,2013-10-07 20:29:00,
2013-10-07 16:30:00,73.2,24.4,29.15,ESE,119,6.9,8.7,16,0.00,,---,0.00,VWS V14.01,2013-10-07 20:30:00,
2013-10-07 16:31:00,73.0,24.2,29.15,ESE,111,4.9,6.9,16,0.00,,---,0.00,VWS V14.01,2013-10-07 20:31:00,
2013-10-07 16:32:00,73.0,24.2,29.15,East,91,5.4,6.3,16,0.00,,---,0.00,VWS V14.01,2013-10-07 20:32:00,
2013-10-07 16:33:00,73.2,24.4,29.15,East,100,4.0,6.9,16,0.00,,---,0.00,VWS V14.01,2013-10-07 20:33:00,
2013-10-07 16:34:00,59.9,33.6,28.94,NNE,15,0.0,4.9,37,0.00,,---,0.00,VWS V14.01,2013-10-07 20:34:00,
2013-10-07 16:35:00,73.0,24.2,29.15,ESE,103,6.3,9.6,16,0.00,,---,0.00,VWS V14.01,2013-10-07 20:35:00,
2013-10-07 16:36:00,72.9,24.1,29.15,East,84,4.9,7.8,16,0.00,,---,0.00,VWS V14.01,2013-10-07 20:36:00,
2013-10-07 16:37:00,72.9,24.1,29.15,East,88,0.0,5.8,16,0.00,,---,0.00,VWS V14.01,2013-10-07 20:37:00,
2013-10-07 16:38:00,72.9,24.1,29.15,East,95,2.7,5.8,16,0.00,,---,0.00,VWS V14.01,2013-10-07 20:38:00,
2013-10-07 16:39:00,59.5,33.9,28.94,West,272,6.9,11.0,38,0.00,,---,0.00,VWS V14.01,2013-10-07 20:39:00,
2013-10-07 16:40:00,73.2,24.4,29.15,ENE,70,0.0,3.6,16,0.00,,---,0.00,VWS V14.01,2013-10-07 20:40:00,
2013-10-07 16:41:00,73.4,24.5,29.15,East,93,0.0,2.7,16,0.00,,---,0.00,VWS V14.01,2013-10-07 20:41:00,
2013-10-07 16:42:00,73.4,24.5,29.15,East,89,0.0,5.4,16,0.00,,---,0.00,VWS V14.01,2013-10-07 20:42:00,
2013-10-07 16:43:00,73.6,24.7,29.15,SSE,155,4.0,4.9,16,0.00,,---,0.00,VWS V14.01,2013-10-07 20:43:00,
2013-10-07 16:44:00,73.6,24.7,29.15,SE,145,4.0,6.3,16,0.00,,---,0.00,VWS V14.01,2013-10-07 20:44:00,
2013-10-07 16:45:00,60.1,33.1,28.94,West,276,0.0,6.9,36,0.00,,---,0.00,VWS V14.01,2013-10-07 20:45:00,
2013-10-07 16:46:00,73.4,24.5,29.15,SE,135,3.1,5.4,16,0.00,,---,0.00,VWS V14.01,2013-10-07 20:46:00,
2013-10-07 16:47:00,73.4,24.5,29.15,ENE,67,4.5,5.4,16,0.00,,---,0.00,VWS V14.01,2013-10-07 20:47:00,
2013-10-07 16:48:00,73.4,24.5,29.15,ESE,106,4.9,4.9,16,0.00,,---,0.00,VWS V14.01,2013-10-07 20:48:00,
2013-10-07 16:49:00,73.6,24.7,29.15,SE,127,4.0,5.4,16,0.00,,---,0.00,VWS V14.01,2013-10-07 20:49:00,
2013-10-07 16:50:00,60.8,33.0,28.94,WNW,295,5.8,8.3,35,0.00,,---,0.00,VWS V14.01,2013-10-07 20:50:00,
2013-10-07 16:51:00,73.8,24.8,29.15,SE,126,0.0,0.0,16,0.00,,---,0.00,VWS V14.01,2013-10-07 20:51:00,
2013-10-07 16:52:00,73.8,24.8,29.15,East,83,4.5,5.8,16,0.00,,---,0.00,VWS V14.01,2013-10-07 20:52:00,
2013-10-07 16:53:00,73.8,24.8,29.15,East,100,3.6,6.7,16,0.00,,---,0.00,VWS V14.01,2013-10-07 20:53:00,
2013-10-07 16:54:00,73.8,24.8,29.15,ENE,65,0.0,4.0,16,0.00,,---,0.00,VWS V14.01,2013-10-07 20:54:00,
2013-10-07 16:56:00,73.9,25.0,29.15,ESE,114,6.3,6.3,16,0.00,,---,0.00,VWS V14.01,2013-10-07 20:56:00,
2013-10-07 16:57:00,60.1,32.4,28.94,NW,314,6.7,8.3,35,0.00,,---,0.00,VWS V14.01,2013-10-07 20:57:00,
2013-10-07 16:58:00,73.2,24.4,29.15,ESE,118,6.9,7.4,16,0.00,,---,0.00,VWS V14.01,2013-10-07 20:58:00,
2013-10-07 16:59:00,72.9,24.1,29.15,East,92,5.4,7.4,16,0.00,,---,0.00,VWS V14.01,2013-10-07 20:59:00,
2013-10-07 17:00:00,72.7,23.9,29.15,East,92,5.8,8.3,16,0.00,,---,0.00,VWS V14.01,2013-10-07 21:00:00,
2013-10-07 17:02:00,59.7,34.1,28.97,NNW,339,0.0,3.6,38,0.00,,---,0.00,VWS V14.01,2013-10-07 21:02:00,
2013-10-07 17:03:00,72.7,23.9,29.15,ESE,107,4.5,5.8,16,0.00,,---,0.00,VWS V14.01,2013-10-07 21:03:00,
2013-10-07 17:04:00,72.7,23.9,29.15,East,88,5.8,5.8,16,0.00,,---,0.00,VWS V14.01,2013-10-07 21:04:00,
2013-10-07 17:05:00,72.7,23.9,29.15,SE,125,4.5,5.8,16,0.00,,---,0.00,VWS V14.01,2013-10-07 21:05:00,
2013-10-07 17:06:00,72.7,23.9,29.15,ESE,113,5.4,5.4,16,0.00,,---,0.00,VWS V14.01,2013-10-07 21:06:00,
2013-10-07 17:07:00,72.7,23.9,29.15,ESE,116,3.1,5.4,16,0.00,,---,0.00,VWS V14.01,2013-10-07 21:07:00,
2013-10-07 17:08:00,72.7,23.9,29.15,ENE,77,4.5,6.7,16,0.00,,---,0.00,VWS V14.01,2013-10-07 21:08:00,
2013-10-07 17:09:00,72.9,24.1,29.15,ESE,115,4.0,6.7,16,0.00,,---,0.00,VWS V14.01,2013-10-07 21:09:00,
2013-10-07 17:10:00,72.7,23.9,29.15,SE,125,5.8,7.8,16,0.00,,---,0.00,VWS V14.01,2013-10-07 21:10:00,
2013-10-07 17:11:00,72.7,23.9,29.15,ENE,76,6.3,6.9,16,0.00,,---,0.00,VWS V14.01,2013-10-07 21:11:00,
2013-10-07 17:12:00,61.3,32.8,28.97,WSW,256,6.7,7.4,34,0.00,,---,0.00,VWS V14.01,2013-10-07 21:12:00,
2013-10-07 17:13:00,72.9,24.1,29.15,SE,127,3.6,4.5,16,0.00,,---,0.00,VWS V14.01,2013-10-07 21:13:00,
2013-10-07 17:14:00,72.9,24.1,29.15,SE,130,4.9,5.4,16,0.00,,---,0.00,VWS V14.01,2013-10-07 21:14:00,
2013-10-07 17:16:00,72.5,23.8,29.15,East,92,5.4,8.7,16,0.00,,---,0.00,VWS V14.01,2013-10-07 21:16:00,
2013-10-07 17:18:00,72.0,23.4,29.15,ENE,71,4.5,6.9,16,0.00,,---,0.00,VWS V14.01,2013-10-07 21:18:00,
2013-10-07 17:19:00,61.7,32.3,28.94,WNW,286,3.1,5.4,33,0.00,,---,0.00,VWS V14.01,2013-10-07 21:19:00,
2013-10-07 17:20:00,72.1,23.5,29.15,East,98,4.9,4.9,16,0.00,,---,0.00,VWS V14.01,2013-10-07 21:20:00,
2013-10-07 17:21:00,72.1,23.5,29.15,ESE,114,5.4,6.7,16,0.00,,---,0.00,VWS V14.01,2013-10-07 21:21:00,
2013-10-07 17:22:00,72.1,23.5,29.15,ESE,106,5.4,6.3,16,0.00,,---,0.00,VWS V14.01,2013-10-07 21:22:00,
2013-10-07 17:23:00,72.1,23.5,29.15,SE,132,0.0,5.8,16,0.00,,---,0.00,VWS V14.01,2013-10-07 21:23:00,
2013-10-07 17:24:00,72.0,23.4,29.15,East,81,8.7,8.7,16,0.00,,---,0.00,VWS V14.01,2013-10-07 21:24:00,
2013-10-07 17:25:00,61.9,31.7,28.94,WNW,292,4.5,6.3,32,0.00,,---,0.00,VWS V14.01,2013-10-07 21:25:00,
2013-10-07 17:27:00,71.6,23.1,29.15,East,90,6.3,6.7,16,0.00,,---,0.00,VWS V14.01,2013-10-07 21:27:00,
2013-10-07 17:28:00,71.4,22.9,29.15,ENE,71,3.1,6.7,16,0.00,,---,0.00,VWS V14.01,2013-10-07 21:28:00,
2013-10-07 17:29:00,71.4,22.9,29.15,ESE,108,3.1,4.5,16,0.00,,---,0.00,VWS V14.01,2013-10-07 21:29:00,
2013-10-07 17:30:00,71.4,22.9,29.15,ENE,70,4.0,5.8,16,0.00,,---,0.00,VWS V14.01,2013-10-07 21:30:00,
2013-10-07 17:31:00,61.5,32.9,28.94,NW,324,4.9,6.9,34,0.00,,---,0.00,VWS V14.01,2013-10-07 21:31:00,
2013-10-07 17:32:00,71.4,22.9,29.15,East,89,4.9,5.8,16,0.00,,---,0.00,VWS V14.01,2013-10-07 21:32:00,
2013-10-07 17:33:00,71.2,22.8,29.15,ESE,121,5.4,6.7,16,0.00,,---,0.00,VWS V14.01,2013-10-07 21:33:00,
2013-10-07 17:34:00,71.2,22.8,29.15,East,79,3.6,6.3,16,0.00,,---,0.00,VWS V14.01,2013-10-07 21:34:00,
2013-10-07 17:35:00,71.2,22.8,29.15,ESE,122,7.8,7.8,16,0.00,,---,0.00,VWS V14.01,2013-10-07 21:35:00,
2013-10-07 17:36:00,71.2,22.8,29.15,East,79,4.9,8.3,16,0.00,,---,0.00,VWS V14.01,2013-10-07 21:36:00,
2013-10-07 17:37:00,71.2,22.8,29.15,ESE,110,3.6,5.4,16,0.00,,---,0.00,VWS V14.01,2013-10-07 21:37:00,
2013-10-07 17:38:00,61.9,33.2,28.97,West,273,4.9,6.3,34,0.00,,---,0.00,VWS V14.01,2013-10-07 21:38:00,
2013-10-07 17:39:00,71.2,22.8,29.15,ENE,75,6.7,8.3,16,0.00,,---,0.00,VWS V14.01,2013-10-07 21:39:00,
2013-10-07 17:40:00,71.1,22.6,29.15,ESE,109,5.4,6.9,16,0.00,,---,0.00,VWS V14.01,2013-10-07 21:40:00,
2013-10-07 17:41:00,70.9,22.5,29.15,ESE,111,5.8,6.7,16,0.00,,---,0.00,VWS V14.01,2013-10-07 21:41:00,
2013-10-07 17:43:00,61.5,32.9,28.97,WNW,296,8.3,12.1,34,0.00,,---,0.00,VWS V14.01,2013-10-07 21:43:00,
2013-10-07 17:44:00,70.9,22.5,29.15,ESE,105,5.8,6.9,16,0.00,,---,0.00,VWS V14.01,2013-10-07 21:44:00,
2013-10-07 17:45:00,70.7,22.3,29.15,East,98,6.3,6.7,16,0.00,,---,0.00,VWS V14.01,2013-10-07 21:45:00,
2013-10-07 17:46:00,70.7,23.8,29.15,ESE,111,6.7,6.7,17,0.00,,---,0.00,VWS V14.01,2013-10-07 21:46:00,
2013-10-07 17:47:00,70.5,23.6,29.15,ESE,109,3.6,6.7,17,0.00,,---,0.00,VWS V14.01,2013-10-07 21:47:00,
2013-10-07 17:48:00,70.7,23.8,29.15,East,101,4.0,4.0,17,0.00,,---,0.00,VWS V14.01,2013-10-07 21:48:00,
2013-10-07 17:51:00,62.2,33.5,28.97,NW,310,3.6,5.4,34,0.00,,---,0.00,VWS V14.01,2013-10-07 21:51:00,
2013-10-07 17:52:00,70.7,22.3,29.15,ESE,108,4.5,6.9,16,0.00,,---,0.00,VWS V14.01,2013-10-07 21:52:00,
2013-10-07 17:53:00,70.7,23.8,29.15,East,100,4.9,4.9,17,0.00,,---,0.00,VWS V14.01,2013-10-07 21:53:00,
2013-10-07 17:54:00,70.7,23.8,29.15,East,99,3.6,5.4,17,0.00,,---,0.00,VWS V14.01,2013-10-07 21:54:00,
2013-10-07 17:55:00,70.7,23.8,29.15,East,89,3.6,3.6,17,0.00,,---,0.00,VWS V14.01,2013-10-07 21:55:00,
2013-10-07 17:56:00,61.7,30.8,28.97,NW,314,3.1,6.3,31,0.00,,---,0.00,VWS V14.01,2013-10-07 21:56:00,
2013-10-07 17:58:00,70.5,23.6,29.15,SE,134,3.1,3.1,17,0.00,,---,0.00,VWS V14.01,2013-10-07 21:58:00,
2013-10-07 18:01:00,61.5,30.6,28.97,NW,324,3.1,6.9,31,0.00,,---,0.00,VWS V14.01,2013-10-07 22:01:00,
2013-10-07 18:02:00,70.3,23.5,29.15,ESE,111,3.6,4.5,17,0.00,,---,0.00,VWS V14.01,2013-10-07 22:02:00,
2013-10-07 18:03:00,70.2,23.4,29.15,SE,124,3.6,6.9,17,0.00,,---,0.00,VWS V14.01,2013-10-07 22:03:00,
2013-10-07 18:04:00,70.0,23.2,29.15,ESE,116,4.0,4.5,17,0.00,,---,0.00,VWS V14.01,2013-10-07 22:04:00,
2013-10-07 18:05:00,70.0,23.2,29.15,East,93,4.0,4.5,17,0.00,,---,0.00,VWS V14.01,2013-10-07 22:05:00,
2013-10-07 18:06:00,61.3,32.8,28.97,NW,322,2.7,4.5,34,0.00,,---,0.00,VWS V14.01,2013-10-07 22:06:00,
2013-10-07 18:07:00,69.8,23.1,29.15,East,101,4.5,6.3,17,0.00,,---,0.00,VWS V14.01,2013-10-07 22:07:00,
2013-10-07 18:08:00,69.6,22.9,29.15,East,91,5.8,5.8,17,0.00,,---,0.00,VWS V14.01,2013-10-07 22:08:00,
2013-10-07 18:10:00,69.4,22.8,29.15,ESE,121,5.4,7.4,17,0.00,,---,0.00,VWS V14.01,2013-10-07 22:10:00,
2013-10-07 18:11:00,69.4,22.8,29.15,SE,146,4.9,5.4,17,0.00,,---,0.00,VWS V14.01,2013-10-07 22:11:00,
2013-10-07 18:13:00,61.0,31.7,28.97,NW,312,4.0,5.4,33,0.00,,---,0.00,VWS V14.01,2013-10-07 22:13:00,
2013-10-07 18:16:00,68.9,22.3,29.15,ESE,111,5.8,6.3,17,0.00,,---,0.00,VWS V14.01,2013-10-07 22:16:00,
2013-10-07 18:17:00,68.7,22.2,29.15,East,88,4.5,5.8,17,0.00,,---,0.00,VWS V14.01,2013-10-07 22:17:00,
2013-10-07 18:20:00,60.8,32.3,28.97,WNW,294,0.0,0.0,34,0.00,,---,0.00,VWS V14.01,2013-10-07 22:20:00,
2013-10-07 18:24:00,68.0,21.6,29.15,East,101,4.5,6.3,17,0.00,,---,0.00,VWS V14.01,2013-10-07 22:24:00,
2013-10-07 18:25:00,60.4,32.0,28.97,West,276,0.0,5.4,34,0.00,,---,0.00,VWS V14.01,2013-10-07 22:25:00,
2013-10-07 18:27:00,67.6,21.3,29.15,ESE,119,5.4,5.8,17,0.00,,---,0.00,VWS V14.01,2013-10-07 22:27:00,
2013-10-07 18:29:00,67.5,21.2,29.15,SE,125,4.0,6.9,17,0.00,,---,0.00,VWS V14.01,2013-10-07 22:29:00,
2013-10-07 18:30:00,60.1,31.6,28.97,WNW,302,0.0,4.0,34,0.00,,---,0.00,VWS V14.01,2013-10-07 22:30:00,
2013-10-07 18:31:00,67.3,21.0,29.15,East,97,4.0,5.8,17,0.00,,---,0.00,VWS V14.01,2013-10-07 22:31:00,
2013-10-07 18:35:00,59.4,31.7,28.97,WNW,302,0.0,0.0,35,0.00,,---,0.00,VWS V14.01,2013-10-07 22:35:00,
2013-10-07 18:36:00,66.9,20.7,29.15,SE,139,2.7,4.9,17,0.00,,---,0.00,VWS V14.01,2013-10-07 22:36:00,
2013-10-07 18:39:00,66.6,20.4,29.15,ESE,108,4.0,4.5,17,0.00,,---,0.00,VWS V14.01,2013-10-07 22:39:00,
2013-10-07 18:41:00,66.4,24.1,29.15,ESE,114,3.6,4.5,20,0.00,,---,0.00,VWS V14.01,2013-10-07 22:41:00,
2013-10-07 18:42:00,58.8,32.0,28.97,WNW,302,0.0,0.0,36,0.00,,---,0.00,VWS V14.01,2013-10-07 22:42:00,
2013-10-07 18:47:00,58.3,32.2,28.97,WNW,302,0.0,0.0,37,0.00,,---,0.00,VWS V14.01,2013-10-07 22:47:00,
2013-10-07 18:50:00,65.5,23.4,29.15,ESE,119,0.0,0.0,20,0.00,,---,0.00,VWS V14.01,2013-10-07 22:50:00,
2013-10-07 18:52:00,57.7,33.0,28.97,WNW,302,0.0,3.6,39,0.00,,---,0.00,VWS V14.01,2013-10-07 22:52:00,
2013-10-07 18:54:00,64.9,22.9,29.15,ESE,119,0.0,2.7,20,0.00,,---,0.00,VWS V14.01,2013-10-07 22:54:00,
2013-10-07 18:56:00,64.8,22.8,29.15,ESE,119,0.0,0.0,20,0.00,,---,0.00,VWS V14.01,2013-10-07 22:56:00,
2013-10-07 18:57:00,57.4,33.3,28.97,WNW,302,0.0,0.0,40,0.00,,---,0.00,VWS V14.01,2013-10-07 22:57:00,
2013-10-07 19:01:00,64.2,25.7,29.15,ESE,119,0.0,0.0,23,0.00,,---,0.00,VWS V14.01,2013-10-07 23:01:00,
2013-10-07 19:02:00,56.8,34.0,29.00,WNW,302,0.0,0.0,42,0.00,,---,0.00,VWS V14.01,2013-10-07 23:02:00,
2013-10-07 19:06:00,63.7,25.2,29.15,ESE,119,0.0,0.0,23,0.00,,---,0.00,VWS V14.01,2013-10-07 23:06:00,
2013-10-07 19:07:00,56.3,33.5,29.00,WNW,302,0.0,0.0,42,0.00,,---,0.00,VWS V14.01,2013-10-07 23:07:00,
2013-10-07 19:09:00,63.3,25.9,29.15,ESE,119,0.0,0.0,24,0.00,,---,0.00,VWS V14.01,2013-10-07 23:09:00,
2013-10-07 19:12:00,55.8,33.6,29.00,WNW,302,0.0,0.0,43,0.00,,---,0.00,VWS V14.01,2013-10-07 23:12:00,
2013-10-07 19:17:00,55.2,33.1,29.00,WNW,302,0.0,0.0,43,0.00,,---,0.00,VWS V14.01,2013-10-07 23:17:00,
2013-10-07 19:22:00,54.7,33.2,29.00,WNW,302,0.0,0.0,44,0.00,,---,0.00,VWS V14.01,2013-10-07 23:22:00,
2013-10-07 19:25:00,61.2,26.9,29.15,ESE,119,0.0,0.0,27,0.00,,---,0.00,VWS V14.01,2013-10-07 23:25:00,
2013-10-07 19:27:00,54.1,33.3,29.00,WNW,302,0.0,0.0,45,0.00,,---,0.00,VWS V14.01,2013-10-07 23:27:00,
2013-10-07 19:29:00,60.6,28.2,29.15,ESE,119,0.0,0.0,29,0.00,,---,0.00,VWS V14.01,2013-10-07 23:29:00,
2013-10-07 19:32:00,53.6,33.3,29.00,WNW,302,0.0,0.0,46,0.00,,---,0.00,VWS V14.01,2013-10-07 23:32:00,
2013-10-07 19:37:00,53.1,32.8,29.00,WNW,302,0.0,0.0,46,0.00,,---,0.00,VWS V14.01,2013-10-07 23:37:00,
2013-10-07 19:38:00,59.7,28.3,29.15,ESE,119,0.0,0.0,30,0.00,,---,0.00,VWS V14.01,2013-10-07 23:38:00,
2013-10-07 19:41:00,59.5,28.9,29.15,ESE,119,0.0,0.0,31,0.00,,---,0.00,VWS V14.01,2013-10-07 23:41:00,
2013-10-07 19:44:00,52.7,33.6,29.00,WNW,302,0.0,0.0,48,0.00,,---,0.00,VWS V14.01,2013-10-07 23:44:00,
2013-10-07 19:49:00,52.3,33.8,29.00,WNW,302,0.0,0.0,49,0.00,,---,0.00,VWS V14.01,2013-10-07 23:49:00,
2013-10-07 19:54:00,52.0,33.4,29.00,WNW,302,0.0,0.0,49,0.00,,---,0.00,VWS V14.01,2013-10-07 23:54:00,
2013-10-07 19:59:00,51.6,33.6,29.00,WNW,302,0.0,0.0,50,0.00,,---,0.00,VWS V14.01,2013-10-07 23:59:00,
2013-10-07 20:04:00,51.3,33.8,29.00,WNW,302,0.0,0.0,51,0.00,,---,0.00,VWS V14.01,2013-10-08 00:04:00,
2013-10-07 20:09:00,50.9,33.9,29.00,WNW,302,0.0,0.0,52,0.00,,---,0.00,VWS V14.01,2013-10-08 00:09:00,
2013-10-07 20:14:00,50.5,34.1,29.00,WNW,302,0.0,0.0,53,0.00,,---,0.00,VWS V14.01,2013-10-08 00:14:00,
2013-10-07 20:20:00,50.2,34.7,29.03,WNW,302,0.0,0.0,55,0.00,,---,0.00,VWS V14.01,2013-10-08 00:20:00,
2013-10-07 20:25:00,50.0,34.5,29.03,WNW,302,0.0,0.0,55,0.00,,---,0.00,VWS V14.01,2013-10-08 00:25:00,
2013-10-07 20:30:00,49.8,34.8,29.03,WNW,302,0.0,0.0,56,0.00,,---,0.00,VWS V14.01,2013-10-08 00:30:00,
2013-10-07 20:35:00,49.6,35.0,29.03,WNW,302,0.0,0.0,57,0.00,,---,0.00,VWS V14.01,2013-10-08 00:35:00,
2013-10-07 20:42:00,49.5,35.3,29.03,WNW,302,0.0,0.0,58,0.00,,---,0.00,VWS V14.01,2013-10-08 00:42:00,
2013-10-07 20:48:00,49.3,35.6,29.03,WNW,302,0.0,0.0,59,0.00,,---,0.00,VWS V14.01,2013-10-08 00:48:00,
2013-10-07 20:53:00,48.9,35.7,29.03,WNW,302,0.0,0.0,60,0.00,,---,0.00,VWS V14.01,2013-10-08 00:53:00,
2013-10-07 20:58:00,48.7,35.9,29.03,WNW,302,0.0,0.0,61,0.00,,---,0.00,VWS V14.01,2013-10-08 00:58:00,
2013-10-07 21:03:00,48.6,36.2,29.03,WNW,302,0.0,0.0,62,0.00,,---,0.00,VWS V14.01,2013-10-08 01:03:00,
2013-10-07 21:08:00,48.4,36.0,29.03,WNW,302,0.0,0.0,62,0.00,,---,0.00,VWS V14.01,2013-10-08 01:08:00,
2013-10-07 21:13:00,48.4,36.8,29.03,WNW,302,0.0,0.0,64,0.00,,---,0.00,VWS V14.01,2013-10-08 01:13:00,
2013-10-07 21:18:00,48.2,37.0,29.03,WNW,302,0.0,0.0,65,0.00,,---,0.00,VWS V14.01,2013-10-08 01:18:00,
2013-10-07 21:23:00,48.0,37.2,29.03,WNW,302,0.0,0.0,66,0.00,,---,0.00,VWS V14.01,2013-10-08 01:23:00,
2013-10-07 21:28:00,47.8,37.0,29.03,WNW,302,0.0,0.0,66,0.00,,---,0.00,VWS V14.01,2013-10-08 01:28:00,
2013-10-07 21:33:00,47.7,37.3,29.06,WNW,302,0.0,0.0,67,0.00,,---,0.00,VWS V14.01,2013-10-08 01:33:00,
2013-10-07 21:38:00,47.5,37.1,29.06,WNW,302,0.0,0.0,67,0.00,,---,0.00,VWS V14.01,2013-10-08 01:38:00,
2013-10-07 21:43:00,47.5,37.5,29.06,WNW,302,0.0,0.0,68,0.00,,---,0.00,VWS V14.01,2013-10-08 01:43:00,
2013-10-07 21:49:00,47.3,37.7,29.06,WNW,302,0.0,0.0,69,0.00,,---,0.00,VWS V14.01,2013-10-08 01:49:00,
2013-10-07 21:54:00,47.3,37.7,29.06,WNW,302,0.0,0.0,69,0.00,,---,0.00,VWS V14.01,2013-10-08 01:54:00,
2013-10-07 21:59:00,47.3,38.0,29.06,WNW,302,0.0,0.0,70,0.00,,---,0.00,VWS V14.01,2013-10-08 01:59:00,
2013-10-07 22:04:00,47.1,37.8,29.06,WNW,302,0.0,0.0,70,0.00,,---,0.00,VWS V14.01,2013-10-08 02:04:00,
2013-10-07 22:09:00,46.9,38.0,29.06,WNW,302,0.0,0.0,71,0.00,,---,0.00,VWS V14.01,2013-10-08 02:09:00,
2013-10-07 22:14:00,46.9,38.4,29.06,WNW,302,0.0,0.0,72,0.00,,---,0.00,VWS V14.01,2013-10-08 02:14:00,
2013-10-07 22:19:00,46.8,38.2,29.06,WNW,302,0.0,0.0,72,0.00,,---,0.00,VWS V14.01,2013-10-08 02:19:00,
2013-10-07 22:24:00,46.6,38.0,29.06,WNW,302,0.0,0.0,72,0.00,,---,0.00,VWS V14.01,2013-10-08 02:24:00,
2013-10-07 22:29:00,46.6,38.4,29.06,WNW,302,0.0,0.0,73,0.00,,---,0.00,VWS V14.01,2013-10-08 02:29:00,
2013-10-07 22:34:00,46.4,38.2,29.06,WNW,302,0.0,0.0,73,0.00,,---,0.00,VWS V14.01,2013-10-08 02:34:00,
2013-10-07 22:40:00,46.6,38.8,29.06,WNW,302,0.0,0.0,74,0.00,,---,0.00,VWS V14.01,2013-10-08 02:40:00,
2013-10-07 22:45:00,46.4,38.6,29.06,WNW,302,0.0,0.0,74,0.00,,---,0.00,VWS V14.01,2013-10-08 02:45:00,
2013-10-07 22:50:00,46.4,38.6,29.09,WNW,302,0.0,0.0,74,0.00,,---,0.00,VWS V14.01,2013-10-08 02:50:00,
2013-10-07 22:55:00,46.9,39.4,29.09,WNW,302,0.0,0.0,75,0.00,,---,0.00,VWS V14.01,2013-10-08 02:55:00,
2013-10-07 23:00:00,47.1,40.3,29.09,WNW,302,0.0,0.0,77,0.00,,---,0.00,VWS V14.01,2013-10-08 03:00:00,
2013-10-07 23:05:00,46.8,40.3,29.09,WNW,302,0.0,0.0,78,0.00,,---,0.00,VWS V14.01,2013-10-08 03:05:00,
2013-10-07 23:10:00,46.9,40.8,29.09,WNW,302,0.0,0.0,79,0.00,,---,0.00,VWS V14.01,2013-10-08 03:10:00,
2013-10-07 23:15:00,46.6,40.4,29.09,WNW,302,0.0,0.0,79,0.00,,---,0.00,VWS V14.01,2013-10-08 03:15:00,
2013-10-07 23:21:00,46.6,40.4,29.09,WNW,302,0.0,0.0,79,0.00,,---,0.00,VWS V14.01,2013-10-08 03:21:00,
2013-10-07 23:26:00,46.2,40.1,29.09,WNW,302,0.0,0.0,79,0.00,,---,0.00,VWS V14.01,2013-10-08 03:26:00,
2013-10-07 23:31:00,46.2,40.1,29.09,WNW,302,0.0,0.0,79,0.00,,---,0.00,VWS V14.01,2013-10-08 03:31:00,
2013-10-07 23:36:00,46.2,40.4,29.09,WNW,302,0.0,0.0,80,0.00,,---,0.00,VWS V14.01,2013-10-08 03:36:00,
2013-10-07 23:41:00,46.0,40.2,29.09,WNW,302,0.0,0.0,80,0.00,,---,0.00,VWS V14.01,2013-10-08 03:41:00,
2013-10-07 23:46:00,45.9,40.0,29.09,WNW,302,0.0,0.0,80,0.00,,---,0.00,VWS V14.01,2013-10-08 03:46:00,
2013-10-07 23:51:00,45.9,40.0,29.09,WNW,302,0.0,0.0,80,0.00,,---,0.00,VWS V14.01,2013-10-08 03:51:00,
2013-10-07 23:56:00,46.2,40.7,29.09,WNW,302,0.0,0.0,81,0.00,,---,0.00,VWS V14.01,2013-10-08 03:56:00,
2013-10-07 23:57:00,48.7,35.9,29.18,ESE,106,0.0,0.0,61,0.00,,---,0.00,VWS V14.01,2013-10-08 03:57:00,
2013-10-07 23:58:00,48.7,35.9,29.18,ESE,106,0.0,0.0,61,0.00,,---,0.00,VWS V14.01,2013-10-08 03:58:00,
2013-10-07 23:59:00,48.7,35.9,29.18,ESE,106,0.0,0.0,61,0.00,,---,0.00,VWS V14.01,2013-10-08 03:59:00,